Time;durP1;ratioP1;P1;durP2;ratioP2;P2;SDS_P1;SDS_P2;PMS_P1;PMS_P2;Temp;Humidity;BMP_temperature;BMP_pressure;BME280_temperature;BME280_humidity;BME280_pressure;Samples;Min_cycle;Max_cycle;Signal;HPM_P1;HPM_P2
2022/05/01 00:01:19;;;;;;;22.05;15.85;;;7.30;99.90;;;;;;5075155;28;20401;-54
2022/05/01 00:03:45;;;;;;;22.70;15.45;;;7.30;99.90;;;;;;5074334;28;20024;-56
2022/05/01 00:06:11;;;;;;;25.40;16.52;;;7.20;99.90;;;;;;5074296;28;20401;-55
2022/05/01 00:08:41;;;;;;;23.88;15.77;;;7.20;99.90;;;;;;5074459;28;20035;-55
2022/05/01 00:11:08;;;;;;;25.88;16.85;;;7.20;99.90;;;;;;5074314;28;20024;-55
2022/05/01 00:13:35;;;;;;;23.67;15.63;;;7.20;99.90;;;;;;5074837;28;20017;-57
2022/05/01 00:16:01;;;;;;;21.83;15.63;;;7.10;99.90;;;;;;5074431;28;20060;-54
2022/05/01 00:18:27;;;;;;;22.35;15.35;;;7.10;99.90;;;;;;5074526;28;20036;-56
2022/05/01 00:20:53;;;;;;;24.15;16.65;;;7.20;99.90;;;;;;5073351;28;20028;-56
2022/05/01 00:23:19;;;;;;;24.92;16.90;;;7.20;99.90;;;;;;5073156;28;20063;-55
2022/05/01 00:25:45;;;;;;;26.42;18.10;;;7.20;99.90;;;;;;5073352;28;20051;-56
2022/05/01 00:28:12;;;;;;;27.15;17.48;;;7.20;99.90;;;;;;5073711;28;20028;-57
2022/05/01 00:30:38;;;;;;;23.17;15.77;;;7.20;99.90;;;;;;5072065;28;20021;-56
2022/05/01 00:38:33;;;;;;;23.20;17.83;;;7.10;99.90;;;;;;5073550;28;20097;-55
2022/05/01 00:40:59;;;;;;;30.27;19.13;;;7.10;99.90;;;;;;5073958;28;20043;-55
2022/05/01 00:43:28;;;;;;;28.80;18.50;;;7.00;99.90;;;;;;5074041;28;20465;-55
2022/05/01 00:45:53;;;;;;;29.95;18.85;;;7.00;99.90;;;;;;5073487;28;20089;-55
2022/05/01 00:48:19;;;;;;;29.42;19.40;;;7.00;99.90;;;;;;5073520;28;20028;-55
2022/05/01 00:50:45;;;;;;;29.73;18.55;;;7.00;99.90;;;;;;5074094;28;20476;-55
2022/05/01 00:53:11;;;;;;;30.38;19.15;;;7.00;99.90;;;;;;5073757;28;20025;-55
2022/05/01 00:55:38;;;;;;;28.23;19.77;;;7.00;99.90;;;;;;5073353;28;20024;-55
2022/05/01 00:58:06;;;;;;;27.85;20.35;;;6.90;99.90;;;;;;5073202;28;20234;-56
2022/05/01 01:00:33;;;;;;;30.63;20.00;;;7.00;99.90;;;;;;5073073;28;20017;-56
2022/05/01 01:02:58;;;;;;;32.03;21.38;;;6.90;99.90;;;;;;5072973;28;20490;-56
2022/05/01 01:05:24;;;;;;;31.77;21.10;;;6.90;99.90;;;;;;5073348;28;20021;-56
2022/05/01 01:07:50;;;;;;;29.20;20.40;;;6.90;99.90;;;;;;5073551;28;20005;-56
2022/05/01 01:10:15;;;;;;;29.58;20.75;;;6.90;99.90;;;;;;5072638;28;20531;-55
2022/05/01 01:12:56;;;;;;;28.02;20.05;;;6.90;99.90;;;;;;5073068;28;20024;-55
2022/05/01 01:15:22;;;;;;;33.30;20.95;;;6.90;99.90;;;;;;5073679;28;20461;-56
2022/05/01 01:17:52;;;;;;;28.75;20.70;;;6.90;99.90;;;;;;5072935;28;20090;-56
2022/05/01 01:20:29;;;;;;;30.73;20.20;;;6.90;99.90;;;;;;5073037;28;20473;-56
2022/05/01 01:22:56;;;;;;;30.63;20.20;;;6.80;99.90;;;;;;5073553;28;20052;-56
2022/05/01 01:25:31;;;;;;;25.08;19.80;;;6.70;99.90;;;;;;5073098;28;20032;-56
2022/05/01 01:28:04;;;;;;;30.35;20.80;;;6.70;99.90;;;;;;5071611;28;20485;-56
2022/05/01 01:33:15;;;;;;;26.90;20.73;;;6.70;99.90;;;;;;5072948;28;20531;-56
2022/05/01 01:35:41;;;;;;;27.02;21.45;;;6.70;99.90;;;;;;5072203;28;20075;-56
2022/05/01 01:38:07;;;;;;;27.60;20.95;;;6.60;99.90;;;;;;5072144;28;20025;-56
2022/05/01 01:40:41;;;;;;;29.25;21.98;;;6.70;99.90;;;;;;5072410;28;20027;-56
2022/05/01 01:43:07;;;;;;;34.33;22.80;;;6.70;99.90;;;;;;5072483;28;20386;-56
2022/05/01 01:45:33;;;;;;;33.45;23.58;;;6.70;99.90;;;;;;5072453;28;20144;-55
2022/05/01 01:48:18;;;;;;;33.25;23.42;;;6.70;99.90;;;;;;5072501;28;20050;-56
2022/05/01 01:50:54;;;;;;;30.50;23.85;;;6.70;99.90;;;;;;5072397;28;20028;-56
2022/05/01 01:53:19;;;;;;;34.90;24.10;;;6.60;99.90;;;;;;5071414;28;20060;-56
2022/05/01 01:55:45;;;;;;;33.80;24.48;;;6.60;99.90;;;;;;5072357;28;20062;-55
2022/05/01 01:58:11;;;;;;;34.78;24.38;;;6.60;99.90;;;;;;5072517;28;20459;-56
2022/05/01 02:00:36;;;;;;;37.53;24.83;;;6.60;99.90;;;;;;5072591;28;20083;-55
2022/05/01 02:03:04;;;;;;;33.28;24.88;;;6.50;99.90;;;;;;5072655;28;20510;-56
2022/05/01 02:05:31;;;;;;;33.83;24.95;;;6.50;99.90;;;;;;5071107;28;20476;-56
2022/05/01 02:07:58;;;;;;;36.80;25.63;;;6.50;99.90;;;;;;5071758;28;20107;-56
2022/05/01 02:10:24;;;;;;;33.90;24.92;;;6.50;99.90;;;;;;5072644;28;20035;-56
2022/05/01 02:12:51;;;;;;;40.40;26.38;;;6.50;99.90;;;;;;5072093;28;20020;-55
2022/05/01 02:15:17;;;;;;;37.65;25.85;;;6.40;99.90;;;;;;5072343;28;20491;-55
2022/05/01 02:17:44;;;;;;;39.97;25.33;;;6.40;99.90;;;;;;5072833;28;20473;-56
2022/05/01 02:20:10;;;;;;;34.08;25.10;;;6.30;99.90;;;;;;5072458;28;20028;-59
2022/05/01 02:22:39;;;;;;;39.15;26.67;;;6.30;99.90;;;;;;5072614;28;20088;-56
2022/05/01 02:25:07;;;;;;;38.60;26.48;;;6.30;99.90;;;;;;5072816;28;20477;-55
2022/05/01 02:27:34;;;;;;;37.70;26.30;;;6.30;99.90;;;;;;5072254;28;20564;-56
2022/05/01 02:29:59;;;;;;;35.30;26.73;;;6.30;99.90;;;;;;5072277;28;20025;-56
2022/05/01 02:32:25;;;;;;;36.72;26.65;;;6.30;99.90;;;;;;5072151;28;20031;-55
2022/05/01 02:34:51;;;;;;;41.03;29.05;;;6.20;99.90;;;;;;5071960;28;20076;-61
2022/05/01 02:37:19;;;;;;;40.05;28.13;;;6.30;99.90;;;;;;5071974;28;20021;-54
2022/05/01 02:39:45;;;;;;;46.55;28.63;;;6.30;99.90;;;;;;5071861;28;20043;-55
2022/05/01 02:42:10;;;;;;;44.55;29.58;;;6.30;99.90;;;;;;5070827;28;20103;-55
2022/05/01 02:44:36;;;;;;;44.30;30.00;;;6.40;99.90;;;;;;5072416;28;20685;-55
2022/05/01 02:47:02;;;;;;;39.75;29.35;;;6.30;99.90;;;;;;5070788;28;20508;-55
2022/05/01 02:49:27;;;;;;;43.47;29.48;;;6.30;99.90;;;;;;5075698;28;20033;-55
2022/05/01 02:51:53;;;;;;;40.72;28.83;;;6.30;99.90;;;;;;5075778;28;20025;-54
2022/05/01 02:54:21;;;;;;;43.15;30.15;;;6.30;99.90;;;;;;5076311;28;20583;-55
2022/05/01 02:56:49;;;;;;;42.47;29.70;;;6.30;99.90;;;;;;5076046;28;20047;-54
2022/05/01 02:59:17;;;;;;;44.35;29.48;;;6.20;99.90;;;;;;5075435;28;20051;-55
2022/05/01 03:01:44;;;;;;;43.03;31.88;;;6.30;99.90;;;;;;5076138;28;20028;-56
2022/05/01 03:04:10;;;;;;;46.92;32.65;;;6.30;99.90;;;;;;5075576;28;20028;-55
2022/05/01 03:06:36;;;;;;;49.10;33.92;;;6.40;99.90;;;;;;5075408;28;20032;-55
2022/05/01 03:09:02;;;;;;;48.55;33.78;;;6.40;99.90;;;;;;5075378;28;20052;-55
2022/05/01 03:11:27;;;;;;;49.95;35.65;;;6.40;99.90;;;;;;5075551;28;20137;-55
2022/05/01 03:13:54;;;;;;;48.47;34.20;;;6.40;99.90;;;;;;5075565;28;20026;-55
2022/05/01 03:16:19;;;;;;;48.67;33.28;;;6.30;99.90;;;;;;5075643;28;20060;-55
2022/05/01 03:24:17;;;;;;;43.90;32.30;;;6.40;99.90;;;;;;5075833;28;20039;-55
2022/05/01 03:26:42;;;;;;;55.35;34.85;;;6.30;99.90;;;;;;5074544;28;20569;-55
2022/05/01 03:29:09;;;;;;;50.85;34.58;;;6.20;99.90;;;;;;5074784;28;20099;-55
2022/05/01 03:31:37;;;;;;;54.17;34.95;;;6.20;99.90;;;;;;5075384;28;20032;-55
2022/05/01 03:34:04;;;;;;;46.53;34.22;;;6.20;99.90;;;;;;5075343;28;20090;-55
2022/05/01 03:36:30;;;;;;;50.88;33.35;;;6.20;99.90;;;;;;5075347;28;20032;-55
2022/05/01 03:38:56;;;;;;;52.92;37.00;;;6.20;99.90;;;;;;5075009;28;20036;-55
2022/05/01 03:41:22;;;;;;;52.35;36.72;;;6.10;99.90;;;;;;5075274;28;20358;-55
2022/05/01 03:43:47;;;;;;;50.92;35.90;;;6.10;99.90;;;;;;5074973;28;20056;-55
2022/05/01 03:46:13;;;;;;;56.53;36.58;;;6.00;99.90;;;;;;5074641;28;20025;-56
2022/05/01 03:48:39;;;;;;;53.58;35.58;;;6.00;99.90;;;;;;5074968;28;20676;-55
2022/05/01 03:51:05;;;;;;;53.97;37.60;;;6.00;99.90;;;;;;5075257;28;20025;-55
2022/05/01 03:53:33;;;;;;;57.75;36.80;;;6.00;99.90;;;;;;5074932;28;20102;-55
2022/05/01 03:56:02;;;;;;;51.90;37.42;;;6.00;99.90;;;;;;5074853;28;20485;-56
2022/05/01 03:58:29;;;;;;;55.30;38.03;;;6.10;99.90;;;;;;5074684;28;20028;-55
2022/05/01 04:00:55;;;;;;;54.88;37.13;;;6.10;99.90;;;;;;5074166;28;20059;-55
2022/05/01 04:03:21;;;;;;;55.50;36.88;;;6.10;99.90;;;;;;5074379;28;20024;-55
2022/05/01 04:05:46;;;;;;;50.05;35.65;;;6.10;99.90;;;;;;5074603;28;20025;-56
2022/05/01 04:08:15;;;;;;;50.42;35.22;;;6.00;99.90;;;;;;5074808;28;20035;-56
2022/05/01 04:10:42;;;;;;;51.17;35.55;;;5.90;99.90;;;;;;5074211;28;20021;-56
2022/05/01 04:13:09;;;;;;;51.60;35.67;;;5.90;99.90;;;;;;5074604;28;20028;-55
2022/05/01 04:15:38;;;;;;;49.20;33.80;;;5.90;99.90;;;;;;5074263;28;20274;-56
2022/05/01 04:18:05;;;;;;;50.65;34.85;;;5.90;99.90;;;;;;5075149;28;20020;-55
2022/05/01 04:20:32;;;;;;;55.30;34.42;;;5.80;99.90;;;;;;5074836;28;20108;-55
2022/05/01 04:22:59;;;;;;;49.40;35.10;;;5.70;99.90;;;;;;5075058;28;20031;-55
2022/05/01 04:25:26;;;;;;;50.63;34.33;;;5.70;99.90;;;;;;5074691;28;20017;-55
2022/05/01 04:28:02;;;;;;;49.90;35.05;;;5.60;99.90;;;;;;5073205;28;20028;-55
2022/05/01 04:30:29;;;;;;;56.75;37.55;;;5.70;99.90;;;;;;5073127;28;20108;-56
2022/05/01 04:32:57;;;;;;;48.60;34.80;;;5.70;99.90;;;;;;5074936;28;20017;-56
2022/05/01 04:35:28;;;;;;;52.83;32.97;;;5.60;99.90;;;;;;5074317;28;20094;-55
2022/05/01 04:37:59;;;;;;;51.20;35.23;;;5.50;99.90;;;;;;5072113;28;20074;-56
2022/05/01 04:40:27;;;;;;;51.33;33.78;;;5.30;99.90;;;;;;5073591;28;20266;-55
2022/05/01 04:42:53;;;;;;;59.08;35.95;;;5.30;99.90;;;;;;5089737;28;20021;-55
2022/05/01 04:45:18;;;;;;;57.30;38.47;;;5.50;99.90;;;;;;5074308;28;20036;-56
2022/05/01 04:47:45;;;;;;;58.53;37.38;;;5.60;99.90;;;;;;5074300;28;20031;-56
2022/05/01 04:50:11;;;;;;;51.33;35.22;;;5.60;99.90;;;;;;5074102;28;20538;-55
2022/05/01 04:52:38;;;;;;;52.40;35.92;;;5.50;99.90;;;;;;5074177;28;20047;-55
2022/05/01 04:55:05;;;;;;;55.08;36.95;;;5.50;99.90;;;;;;5073746;28;20035;-56
2022/05/01 04:57:31;;;;;;;51.13;35.70;;;5.50;99.90;;;;;;5073385;28;20027;-55
2022/05/01 04:59:57;;;;;;;55.75;36.75;;;5.60;99.90;;;;;;5072773;28;20032;-55
2022/05/01 05:02:23;;;;;;;51.42;34.85;;;5.70;99.90;;;;;;5073724;28;20089;-55
2022/05/01 05:04:49;;;;;;;51.97;34.30;;;5.70;99.90;;;;;;5073195;28;20693;-56
2022/05/01 05:07:15;;;;;;;48.88;34.63;;;5.80;99.90;;;;;;5072359;28;20081;-55
2022/05/01 05:09:56;;;;;;;53.45;35.03;;;5.90;99.90;;;;;;5073294;28;20067;-56
2022/05/01 05:12:25;;;;;;;51.38;35.50;;;5.90;99.90;;;;;;5073115;28;20028;-55
2022/05/01 05:14:54;;;;;;;54.78;35.63;;;6.20;99.90;;;;;;5073604;28;20013;-55
2022/05/01 05:17:20;;;;;;;53.92;37.40;;;6.30;99.90;;;;;;5073312;28;20073;-55
2022/05/01 05:19:47;;;;;;;50.92;34.25;;;6.10;99.90;;;;;;5073371;28;20027;-55
2022/05/01 05:22:14;;;;;;;51.78;36.08;;;6.20;99.90;;;;;;5073004;28;20025;-56
2022/05/01 05:24:39;;;;;;;49.38;36.10;;;6.30;99.90;;;;;;5071276;28;20024;-57
2022/05/01 05:27:05;;;;;;;47.45;33.70;;;6.60;99.90;;;;;;5071748;28;20420;-55
2022/05/01 05:29:31;;;;;;;52.25;34.30;;;6.60;99.90;;;;;;5072159;28;20028;-55
2022/05/01 05:31:57;;;;;;;49.75;33.55;;;6.70;99.90;;;;;;5072206;28;20029;-56
2022/05/01 05:34:22;;;;;;;44.08;31.00;;;6.70;99.90;;;;;;5071030;28;20119;-55
2022/05/01 05:36:48;;;;;;;50.72;35.75;;;6.60;99.90;;;;;;5071262;28;20027;-55
2022/05/01 05:39:14;;;;;;;51.53;35.00;;;6.80;99.90;;;;;;5071116;28;20502;-55
2022/05/01 05:41:40;;;;;;;50.03;35.22;;;7.00;99.90;;;;;;5071207;28;20025;-55
2022/05/01 05:44:06;;;;;;;55.08;35.05;;;7.30;99.90;;;;;;5070608;28;20025;-55
2022/05/01 05:46:31;;;;;;;50.28;35.38;;;7.50;99.90;;;;;;5070646;28;20241;-55
2022/05/01 05:48:57;;;;;;;49.85;34.67;;;7.60;99.90;;;;;;5070628;28;20033;-55
2022/05/01 05:51:23;;;;;;;46.78;33.78;;;7.70;99.90;;;;;;5070962;28;20424;-55
2022/05/01 05:53:52;;;;;;;45.25;34.75;;;7.90;99.90;;;;;;5070540;28;20063;-55
2022/05/01 05:56:19;;;;;;;45.47;33.28;;;7.90;99.90;;;;;;5070591;28;20469;-55
2022/05/01 05:58:45;;;;;;;47.47;33.95;;;8.00;99.90;;;;;;5070413;28;20417;-55
2022/05/01 06:01:11;;;;;;;48.60;33.10;;;8.20;99.90;;;;;;5070951;28;20024;-55
2022/05/01 06:03:37;;;;;;;41.95;32.45;;;8.20;99.90;;;;;;5070433;28;20424;-55
2022/05/01 06:06:04;;;;;;;43.72;32.70;;;8.40;99.90;;;;;;5070500;28;20045;-56
2022/05/01 06:08:30;;;;;;;40.42;31.77;;;8.50;99.90;;;;;;5070383;28;20029;-55
2022/05/01 06:10:55;;;;;;;45.90;32.17;;;8.60;99.90;;;;;;5070795;28;20028;-55
2022/05/01 06:13:21;;;;;;;41.88;32.58;;;8.50;99.90;;;;;;5070573;28;20032;-55
2022/05/01 06:15:47;;;;;;;43.70;32.25;;;8.60;99.90;;;;;;5069289;28;20027;-55
2022/05/01 06:18:13;;;;;;;45.28;31.58;;;8.70;99.90;;;;;;5070683;28;20441;-55
2022/05/01 06:20:39;;;;;;;41.40;32.13;;;8.80;99.90;;;;;;5070123;28;20107;-55
2022/05/01 06:23:04;;;;;;;43.22;31.17;;;8.90;99.90;;;;;;5069769;28;20027;-55
2022/05/01 06:25:30;;;;;;;41.05;30.65;;;8.90;99.90;;;;;;5070346;28;20035;-55
2022/05/01 06:27:56;;;;;;;43.40;32.30;;;8.90;99.90;;;;;;5071289;28;20024;-55
2022/05/01 06:30:22;;;;;;;44.45;32.80;;;8.90;99.90;;;;;;5070254;28;20039;-55
2022/05/01 06:32:48;;;;;;;40.38;31.90;;;9.00;99.90;;;;;;5070322;28;20047;-55
2022/05/01 06:35:18;;;;;;;40.88;30.50;;;9.10;99.90;;;;;;5069581;28;20536;-55
2022/05/01 06:37:45;;;;;;;39.90;30.33;;;9.20;99.90;;;;;;5069542;28;20016;-55
2022/05/01 06:40:10;;;;;;;40.08;30.58;;;9.20;99.90;;;;;;5070389;28;20039;-55
2022/05/01 06:42:36;;;;;;;45.13;31.98;;;9.20;99.90;;;;;;5070303;28;20394;-55
2022/05/01 06:45:04;;;;;;;46.00;31.75;;;9.40;99.90;;;;;;5069878;28;20454;-55
2022/05/01 06:47:30;;;;;;;40.92;30.33;;;9.60;99.90;;;;;;5069861;28;20066;-55
2022/05/01 06:49:56;;;;;;;40.20;31.38;;;9.80;99.90;;;;;;5068633;28;20082;-55
2022/05/01 06:52:23;;;;;;;41.78;30.98;;;9.90;99.90;;;;;;5070327;28;20028;-55
2022/05/01 06:54:59;;;;;;;40.90;30.75;;;9.90;99.90;;;;;;5070049;28;20047;-56
2022/05/01 06:57:25;;;;;;;44.63;31.60;;;10.00;99.90;;;;;;5070134;28;20052;-55
2022/05/01 06:59:51;;;;;;;39.35;29.38;;;10.10;99.90;;;;;;5069979;28;20027;-56
2022/05/01 07:02:17;;;;;;;43.15;32.13;;;10.30;99.90;;;;;;5085734;28;20497;-55
2022/05/01 07:04:43;;;;;;;43.13;29.20;;;10.50;99.90;;;;;;5069981;28;20105;-55
2022/05/01 07:07:08;;;;;;;37.65;27.73;;;11.20;99.90;;;;;;5069565;28;20033;-55
2022/05/01 07:09:34;;;;;;;36.67;26.73;;;12.70;99.90;;;;;;5069475;28;20119;-55
2022/05/01 07:12:00;;;;;;;35.30;24.67;;;14.40;99.90;;;;;;5070206;28;20033;-56
2022/05/01 07:14:25;;;;;;;32.75;23.20;;;16.10;99.90;;;;;;5070057;28;20351;-55
2022/05/01 07:16:51;;;;;;;32.00;24.67;;;17.10;99.90;;;;;;5069970;28;20069;-56
2022/05/01 07:19:16;;;;;;;30.05;24.00;;;17.90;99.90;;;;;;5070068;28;20396;-58
2022/05/01 07:21:42;;;;;;;30.20;24.02;;;18.40;99.90;;;;;;5068734;28;20515;-58
2022/05/01 07:24:08;;;;;;;30.60;23.90;;;17.80;99.50;;;;;;5069645;28;20108;-58
2022/05/01 07:26:34;;;;;;;28.45;22.55;;;17.60;99.90;;;;;;5069469;28;20028;-56
2022/05/01 07:29:00;;;;;;;41.35;32.83;;;17.30;99.90;;;;;;5069726;28;20032;-56
2022/05/01 07:31:27;;;;;;;29.13;23.45;;;17.60;99.90;;;;;;5070181;28;20033;-58
2022/05/01 07:33:52;;;;;;;30.77;24.95;;;17.90;99.20;;;;;;5068452;28;20045;-57
2022/05/01 07:36:21;;;;;;;30.17;24.17;;;18.40;97.90;;;;;;5073317;28;20036;-56
2022/05/01 07:38:48;;;;;;;30.13;23.98;;;18.60;97.30;;;;;;5073347;28;20071;-56
2022/05/01 07:41:16;;;;;;;28.55;23.33;;;18.90;96.50;;;;;;5073359;28;20048;-58
2022/05/01 07:43:43;;;;;;;29.55;24.77;;;19.30;96.20;;;;;;5073361;28;20020;-57
2022/05/01 07:46:08;;;;;;;30.10;25.27;;;19.60;94.80;;;;;;5073311;28;20025;-56
2022/05/01 07:48:34;;;;;;;28.77;24.95;;;18.90;95.30;;;;;;5072808;28;20567;-58
2022/05/01 07:51:00;;;;;;;31.13;24.25;;;18.90;95.40;;;;;;5073007;28;20409;-57
2022/05/01 07:53:26;;;;;;;31.73;24.05;;;19.30;95.30;;;;;;5073054;28;20027;-57
2022/05/01 07:55:51;;;;;;;30.60;22.17;;;19.90;93.40;;;;;;5072154;28;20013;-57
2022/05/01 07:58:20;;;;;;;26.10;22.08;;;20.10;92.50;;;;;;5072998;28;20421;-57
2022/05/01 08:00:46;;;;;;;26.80;21.50;;;20.40;92.20;;;;;;5073477;28;20020;-57
2022/05/01 08:05:56;;;;;;;24.42;19.42;;;20.10;92.20;;;;;;5073293;28;20081;-57
2022/05/01 08:08:22;;;;;;;24.73;19.65;;;20.00;92.20;;;;;;5072952;28;20028;-57
2022/05/01 08:10:47;;;;;;;26.35;21.55;;;19.80;91.50;;;;;;5073347;28;20025;-57
2022/05/01 08:13:13;;;;;;;25.55;19.15;;;19.90;92.20;;;;;;5072854;28;20404;-57
2022/05/01 08:15:39;;;;;;;19.27;16.20;;;20.40;91.00;;;;;;5072815;28;20021;-57
2022/05/01 08:21:05;;;;;;;25.50;20.80;;;18.80;92.40;;;;;;5072550;28;20035;-57
2022/05/01 08:23:31;;;;;;;22.90;19.20;;;18.50;93.30;;;;;;5072391;28;20024;-56
2022/05/01 08:26:03;;;;;;;23.58;18.50;;;19.40;92.20;;;;;;5072803;28;20024;-57
2022/05/01 08:28:32;;;;;;;20.10;17.45;;;20.20;90.40;;;;;;5072279;28;20548;-57
2022/05/01 08:30:59;;;;;;;19.60;16.17;;;20.80;89.90;;;;;;5072790;28;20032;-57
2022/05/01 08:33:25;;;;;;;10.35;8.75;;;21.40;86.20;;;;;;5072167;28;20032;-57
2022/05/01 08:35:50;;;;;;;9.32;6.70;;;20.70;81.60;;;;;;5071002;28;20485;-57
2022/05/01 08:38:16;;;;;;;12.00;9.45;;;20.10;80.90;;;;;;5072854;28;20025;-57
2022/05/01 08:40:46;;;;;;;11.88;8.30;;;19.50;83.40;;;;;;5072150;28;20603;-57
2022/05/01 08:43:17;;;;;;;16.42;12.65;;;18.60;84.30;;;;;;5072264;28;20102;-57
2022/05/01 08:45:59;;;;;;;15.68;13.27;;;18.10;89.50;;;;;;5072387;28;20024;-56
2022/05/01 08:48:25;;;;;;;23.92;18.17;;;18.00;89.10;;;;;;5071578;28;20035;-56
2022/05/01 08:50:54;;;;;;;23.48;18.23;;;17.70;91.30;;;;;;5070372;28;20031;-56
2022/05/01 08:53:22;;;;;;;22.75;17.63;;;17.20;92.00;;;;;;5071442;28;20032;-56
2022/05/01 08:55:48;;;;;;;22.30;15.98;;;16.70;92.90;;;;;;5071518;28;20409;-56
2022/05/01 08:58:15;;;;;;;16.00;12.73;;;16.40;93.00;;;;;;5071177;28;20445;-56
2022/05/01 09:00:41;;;;;;;14.35;11.82;;;16.60;92.60;;;;;;5071662;28;20025;-56
2022/05/01 09:03:07;;;;;;;15.48;12.18;;;17.60;91.20;;;;;;5071813;28;20390;-58
2022/05/01 09:05:33;;;;;;;14.85;12.40;;;18.20;89.20;;;;;;5071565;28;20089;-58
2022/05/01 09:07:59;;;;;;;15.43;13.13;;;18.70;88.10;;;;;;5071529;28;20439;-58
2022/05/01 09:10:31;;;;;;;16.80;14.32;;;19.20;87.40;;;;;;5071082;28;20470;-58
2022/05/01 09:12:57;;;;;;;18.25;13.73;;;18.80;89.30;;;;;;5071930;28;20454;-57
2022/05/01 09:15:50;;;;;;;14.70;13.00;;;19.50;87.10;;;;;;5071874;28;20630;-58
2022/05/01 09:18:15;;;;;;;14.25;11.85;;;19.70;85.40;;;;;;5069280;28;20501;-57
2022/05/01 09:21:01;;;;;;;13.00;11.48;;;20.20;84.00;;;;;;5071701;28;20031;-57
2022/05/01 09:23:39;;;;;;;13.65;12.20;;;20.90;81.60;;;;;;5071610;28;20052;-57
2022/05/01 09:26:08;;;;;;;13.32;10.95;;;20.90;79.70;;;;;;5071506;28;20067;-58
2022/05/01 09:28:34;;;;;;;16.88;12.52;;;21.00;79.70;;;;;;5071120;28;20056;-58
2022/05/01 09:31:00;;;;;;;14.52;12.00;;;20.90;79.30;;;;;;5070139;28;20478;-57
2022/05/01 09:33:26;;;;;;;14.70;12.40;;;20.00;81.70;;;;;;5071172;28;20058;-57
2022/05/01 09:35:52;;;;;;;14.98;11.93;;;19.90;81.60;;;;;;5071931;28;20055;-57
2022/05/01 09:38:28;;;;;;;12.45;11.07;;;20.40;80.40;;;;;;5070187;28;20389;-57
2022/05/01 09:41:00;;;;;;;14.00;11.00;;;20.50;78.30;;;;;;5071755;28;20054;-57
2022/05/01 09:43:38;;;;;;;12.70;10.32;;;20.50;78.40;;;;;;5071212;28;20013;-57
2022/05/01 09:46:18;;;;;;;11.50;10.30;;;20.60;77.30;;;;;;5071117;28;20099;-57
2022/05/01 09:48:58;;;;;;;11.13;10.00;;;20.70;75.70;;;;;;5070663;28;20032;-57
2022/05/01 09:51:25;;;;;;;13.65;9.60;;;19.90;77.90;;;;;;5071126;28;20013;-57
2022/05/01 09:53:51;;;;;;;11.93;10.32;;;19.50;78.20;;;;;;5070742;28;20024;-57
2022/05/01 09:56:19;;;;;;;12.45;10.00;;;19.10;79.30;;;;;;5070909;28;20031;-57
2022/05/01 09:58:45;;;;;;;15.20;10.07;;;19.20;78.80;;;;;;5070494;28;20493;-57
2022/05/01 10:01:15;;;;;;;9.75;8.75;;;19.80;78.00;;;;;;5070977;28;20590;-57
2022/05/01 10:03:43;;;;;;;11.38;10.20;;;21.20;76.30;;;;;;5070659;28;20390;-57
2022/05/01 10:06:11;;;;;;;12.23;9.30;;;21.80;72.30;;;;;;5070514;28;20048;-57
2022/05/01 10:08:38;;;;;;;9.25;8.27;;;22.20;70.70;;;;;;5070396;28;20040;-57
2022/05/01 10:11:05;;;;;;;8.40;7.53;;;23.20;67.20;;;;;;5070684;28;20103;-58
2022/05/01 10:13:32;;;;;;;8.32;7.53;;;23.00;66.80;;;;;;5070629;28;20016;-58
2022/05/01 10:16:00;;;;;;;10.02;7.95;;;22.90;67.20;;;;;;5070593;28;20025;-58
2022/05/01 10:18:25;;;;;;;8.57;7.78;;;23.60;64.20;;;;;;5070595;28;20571;-58
2022/05/01 10:20:52;;;;;;;7.05;6.32;;;23.50;63.80;;;;;;5070573;28;20043;-58
2022/05/01 10:23:18;;;;;;;10.63;8.40;;;23.50;63.30;;;;;;5070492;28;20130;-58
2022/05/01 10:26:07;;;;;;;8.57;7.78;;;22.10;65.80;;;;;;5070396;28;20052;-58
2022/05/01 10:29:07;;;;;;;9.95;8.30;;;22.40;64.50;;;;;;5070449;28;20019;-57
2022/05/01 10:34:44;;;;;;;10.85;9.70;;;21.00;67.40;;;;;;5069479;28;20052;-57
2022/05/01 10:37:32;;;;;;;10.10;8.60;;;20.40;69.60;;;;;;5070149;28;20029;-57
2022/05/01 10:39:58;;;;;;;10.18;8.90;;;19.50;72.80;;;;;;5070248;28;20032;-57
2022/05/01 10:42:46;;;;;;;9.68;8.68;;;19.80;71.80;;;;;;5069420;28;20031;-58
2022/05/01 10:45:23;;;;;;;11.07;9.35;;;20.30;71.50;;;;;;5070367;28;20116;-58
2022/05/01 10:47:54;;;;;;;11.55;9.25;;;20.50;71.10;;;;;;5069188;28;20557;-58
2022/05/01 10:50:25;;;;;;;9.85;8.70;;;20.10;72.30;;;;;;5070095;28;20489;-59
2022/05/01 10:53:11;;;;;;;9.88;8.20;;;20.60;72.90;;;;;;5070437;28;20028;-58
2022/05/01 10:55:52;;;;;;;9.88;8.65;;;20.90;69.30;;;;;;5069257;28;20223;-58
2022/05/01 10:58:26;;;;;;;9.68;8.73;;;21.00;71.40;;;;;;5070452;28;20024;-58
2022/05/01 11:00:53;;;;;;;10.80;9.30;;;21.40;69.40;;;;;;5070343;28;20078;-58
2022/05/01 11:03:32;;;;;;;13.35;9.55;;;21.90;67.10;;;;;;5068838;28;20032;-58
2022/05/01 11:06:04;;;;;;;8.60;7.55;;;22.00;67.40;;;;;;5070477;28;20562;-58
2022/05/01 11:08:38;;;;;;;9.05;6.63;;;22.20;65.20;;;;;;5069076;28;20021;-58
2022/05/01 11:11:11;;;;;;;7.22;6.53;;;21.90;66.00;;;;;;5074443;28;20496;-58
2022/05/01 11:13:41;;;;;;;12.30;7.78;;;22.10;65.60;;;;;;5074396;28;20082;-57
2022/05/01 11:16:08;;;;;;;9.07;8.13;;;21.50;65.80;;;;;;5074334;28;20095;-57
2022/05/01 11:18:43;;;;;;;8.95;8.07;;;21.10;66.00;;;;;;5074102;28;20047;-58
2022/05/01 11:21:32;;;;;;;9.05;8.15;;;21.10;67.20;;;;;;5074124;28;20382;-58
2022/05/01 11:24:03;;;;;;;9.20;8.02;;;20.40;68.10;;;;;;5056059;28;20055;-57
2022/05/01 11:26:29;;;;;;;9.95;8.82;;;20.00;69.50;;;;;;5073629;28;20086;-57
2022/05/01 11:29:06;;;;;;;9.55;8.65;;;19.30;70.80;;;;;;5071731;28;20025;-57
2022/05/01 11:31:38;;;;;;;9.55;8.63;;;19.20;72.80;;;;;;5073750;28;20043;-57
2022/05/01 11:34:16;;;;;;;11.13;9.40;;;20.00;71.90;;;;;;5073018;28;20509;-57
2022/05/01 11:37:03;;;;;;;10.60;9.40;;;20.60;69.70;;;;;;5073195;28;20025;-58
2022/05/01 11:39:47;;;;;;;11.20;9.48;;;21.40;67.50;;;;;;5073227;28;20286;-57
2022/05/01 11:42:25;;;;;;;12.05;9.95;;;22.40;65.90;;;;;;5073529;28;20032;-58
2022/05/01 11:44:55;;;;;;;10.70;9.25;;;21.70;66.70;;;;;;5073523;28;20024;-58
2022/05/01 11:47:22;;;;;;;12.35;9.48;;;21.30;68.20;;;;;;5073393;28;20090;-57
2022/05/01 11:49:48;;;;;;;12.63;9.55;;;21.80;66.90;;;;;;5072999;28;20044;-57
2022/05/01 11:52:16;;;;;;;13.25;9.75;;;22.10;65.80;;;;;;5073168;28;20528;-57
2022/05/01 11:54:51;;;;;;;10.25;8.68;;;21.70;66.70;;;;;;5073297;28;20033;-57
2022/05/01 12:03:12;;;;;;;11.63;9.00;;;22.40;65.00;;;;;;5073252;28;20039;-57
2022/05/01 12:05:47;;;;;;;10.90;9.25;;;23.80;62.90;;;;;;5072920;28;20017;-57
2022/05/01 12:08:13;;;;;;;10.45;9.45;;;23.70;62.30;;;;;;5073234;28;20060;-57
2022/05/01 12:10:44;;;;;;;12.38;9.00;;;24.20;62.00;;;;;;5072614;28;20028;-57
2022/05/01 12:13:21;;;;;;;10.30;9.25;;;24.30;62.20;;;;;;5073038;28;20529;-57
2022/05/01 12:15:47;;;;;;;10.60;9.60;;;25.30;60.30;;;;;;5072715;28;20054;-57
2022/05/01 12:18:13;;;;;;;13.25;9.88;;;24.70;59.90;;;;;;5073107;28;20090;-57
2022/05/01 12:20:39;;;;;;;14.02;10.43;;;23.00;63.90;;;;;;5072468;28;20112;-57
2022/05/01 12:23:14;;;;;;;12.27;11.07;;;22.10;63.80;;;;;;5072806;28;20100;-57
2022/05/01 12:25:41;;;;;;;11.80;10.70;;;22.20;63.20;;;;;;5074108;28;20032;-57
2022/05/01 12:28:10;;;;;;;13.50;12.10;;;21.90;63.70;;;;;;5072973;28;20100;-57
2022/05/01 12:30:36;;;;;;;13.75;11.63;;;21.70;63.60;;;;;;5072399;28;20025;-57
2022/05/01 12:33:03;;;;;;;13.30;11.90;;;21.20;65.20;;;;;;5073236;28;20478;-56
2022/05/01 12:35:49;;;;;;;13.38;11.63;;;21.10;67.00;;;;;;5072641;28;20051;-56
2022/05/01 12:38:15;;;;;;;17.00;13.00;;;21.20;65.80;;;;;;5072134;28;20111;-56
2022/05/01 12:46:29;;;;;;;15.48;13.50;;;21.80;65.30;;;;;;5072436;28;20039;-56
2022/05/01 12:48:56;;;;;;;13.85;12.02;;;22.50;61.40;;;;;;5072463;28;20088;-56
2022/05/01 12:51:24;;;;;;;14.25;12.85;;;22.70;61.40;;;;;;5072322;28;20012;-56
2022/05/01 12:54:06;;;;;;;15.07;12.98;;;21.70;62.40;;;;;;5071787;28;20021;-56
2022/05/01 12:56:33;;;;;;;15.18;13.65;;;21.30;63.60;;;;;;5072731;28;20055;-56
2022/05/01 12:59:00;;;;;;;15.45;13.85;;;21.50;63.60;;;;;;5072312;28;20033;-57
2022/05/01 13:01:29;;;;;;;14.85;13.35;;;21.70;64.00;;;;;;5070800;28;20528;-56
2022/05/01 13:03:55;;;;;;;15.25;13.85;;;21.70;64.60;;;;;;5071906;28;20132;-56
2022/05/01 13:06:23;;;;;;;17.17;15.43;;;21.20;66.20;;;;;;5071623;28;20035;-57
2022/05/01 13:09:06;;;;;;;17.33;15.45;;;21.10;66.70;;;;;;5071423;28;20384;-56
2022/05/01 13:11:33;;;;;;;17.55;15.75;;;20.80;67.70;;;;;;5071703;28;20025;-56
2022/05/01 13:14:06;;;;;;;17.33;15.48;;;21.00;67.40;;;;;;5071906;28;20046;-56
2022/05/01 13:16:32;;;;;;;17.38;15.48;;;21.00;66.80;;;;;;5071388;28;20104;-56